MSC Kalamata — VRPE8 — position and weather

sailwx.info

Track history (hours):
 
Tides and Currents Weather Stations Pressure Air Temp Water Temp Dewpoint Dewpoint Depression Visibility Wind Speed Wind Dir Waves Ship Positions

MSC Kalamata

Last reported at 2017-Nov-17 13:55 UTC. Time now 2017-Nov-23 07:50 UTC.
Position N 37°53' W 030°06'.

Length 304 m; draft 13.6 m.

Type: Ship (hazmat cat D). MMSI: 477510600.

Date/timePositionNaut miles runAvg speedWind from/ knotsBaromVisibWave heightAir tempDewpointWater temp
2017-Nov-17 13:55N 37°53' W 030°06'818.8
2017-Nov-17 13:28N 37°54' W 029°56'918.6
2017-Nov-17 13:00N 37°54' W 029°45'919.0
2017-Nov-17 12:30N 37°55' W 029°33'1019.0
2017-Nov-17 12:00N 37°55' W 029°21'919.0
2017-Nov-17 11:31N 37°56' W 029°09'1019.2
2017-Nov-17 11:00N 37°56' W 028°57'1019.3
2017-Nov-17 10:30N 37°57' W 028°44'1019.1
2017-Nov-17 10:00N 37°58' W 028°32'1019.3
2017-Nov-17 09:30N 37°58' W 028°20'1019.1
2017-Nov-17 09:00N 37°59' W 028°08'1019.3
2017-Nov-17 08:30N 37°60' W 027°56'1019.5
2017-Nov-17 08:00N 38°00' W 027°43'1019.3
2017-Nov-17 07:30N 38°01' W 027°31'1019.5
2017-Nov-17 07:00N 38°01' W 027°19'1019.6
2017-Nov-17 06:30N 38°02' W 027°06'1019.1
2017-Nov-17 06:00N 38°03' W 026°54'1019.3
2017-Nov-17 05:30N 38°03' W 026°42'1019.2
2017-Nov-17 05:00N 38°04' W 026°30'1019.3
2017-Nov-17 04:30N 38°05' W 026°18'1019.2
2017-Nov-17 04:00N 38°06' W 026°05'919.0
2017-Nov-17 03:30N 38°06' W 025°53'1019.1
2017-Nov-17 03:00N 38°07' W 025°41'1019.3
2017-Nov-17 02:31N 38°08' W 025°29'1019.0
2017-Nov-17 02:00N 38°08' W 025°17'1019.1
2017-Nov-17 01:30N 38°09' W 025°05'1019.2
2017-Nov-17 01:00N 38°09' W 024°53'1019.4
2017-Nov-17 00:31N 38°10' W 024°40'1019.5
2017-Nov-17 00:00N 38°11' W 024°28'1019.5
2017-Nov-16 23:31N 38°11' W 024°16'66819.0
2017-Nov-15 12:21N 37°57' W 010°08'1419.4
2017-Nov-15 11:36N 37°56' W 009°50'218.8
2017-Nov-15 11:30N 37°56' W 009°47'918.9
2017-Nov-15 11:01N 37°55' W 009°35'1019.2
2017-Nov-15 10:30N 37°54' W 009°23'1019.3
2017-Nov-15 10:00N 37°53' W 009°11'918.9
2017-Nov-15 09:31N 37°53' W 008°59'714.2
2017-Nov-15 09:00N 37°55' W 008°51'1 1.7
2017-Nov-15 08:28N 37°56' W 008°51'0 0.0
2017-Nov-15 07:58N 37°56' W 008°51'0 0.0
2017-Nov-15 07:28N 37°56' W 008°51'0 0.0
2017-Nov-15 06:58N 37°56' W 008°51'0 0.0
2017-Nov-15 06:28N 37°56' W 008°51'0 0.0
2017-Nov-15 05:58N 37°56' W 008°51'0 0.0
2017-Nov-15 05:28N 37°56' W 008°51'0 0.0
2017-Nov-15 04:58N 37°56' W 008°51'0 0.0
2017-Nov-15 04:28N 37°56' W 008°51'0 0.0
2017-Nov-15 03:58N 37°56' W 008°51'0 0.0
2017-Nov-15 03:28N 37°56' W 008°51'0 0.0
2017-Nov-15 02:58N 37°56' W 008°51'0 0.0
2017-Nov-15 02:28N 37°56' W 008°51'0 0.1
2017-Nov-15 01:58N 37°56' W 008°51'0 0.0
2017-Nov-15 01:28N 37°56' W 008°51'0 0.0
2017-Nov-15 00:58N 37°56' W 008°51'0 0.0
2017-Nov-15 00:28N 37°56' W 008°51'0 0.0
2017-Nov-14 23:58N 37°56' W 008°51'0 0.0
2017-Nov-14 23:28N 37°56' W 008°51'0 0.0
2017-Nov-14 22:58N 37°56' W 008°51'0 0.0
2017-Nov-14 22:28N 37°56' W 008°51'0 0.0
2017-Nov-14 21:58N 37°56' W 008°51'0 0.0
2017-Nov-14 21:28N 37°56' W 008°51'0 0.0
2017-Nov-14 20:58N 37°56' W 008°51'0 0.0
2017-Nov-14 20:28N 37°56' W 008°51'0 0.0
2017-Nov-14 19:58N 37°56' W 008°51'0 0.0
2017-Nov-14 19:28N 37°56' W 008°51'0 0.0
2017-Nov-14 18:58N 37°56' W 008°51'0 0.0
2017-Nov-14 18:30N 37°56' W 008°51'0 0.8
2017-Nov-14 18:00N 37°55' W 008°50'3 5.5
2017-Nov-14 17:31N 37°53' W 008°51'3 6.2
2017-Nov-14 17:00N 37°50' W 008°53'0 0.8
2017-Nov-14 16:31N 37°50' W 008°54'3 6.0
2017-Nov-14 16:00N 37°47' W 008°56'612.9
2017-Nov-14 15:30N 37°41' W 008°57'712.9
2017-Nov-14 15:00N 37°35' W 009°01'713.0
2017-Nov-14 14:28N 37°29' W 009°04'612.8
2017-Nov-14 13:59N 37°23' W 009°08'613.2
2017-Nov-14 13:30N 37°17' W 009°11'1412.9
2017-Nov-14 12:28N 37°05' W 009°18'196 5.7
2017-Nov-13 02:00N 36°09' W 005°25'4 8.4
2017-Nov-13 01:30N 36°05' W 005°23'5 9.5
2017-Nov-13 01:00N 36°03' W 005°17'1 1.3
2017-Nov-13 00:30N 36°03' W 005°17'1 1.1
2017-Nov-13 00:00N 36°03' W 005°17'0 1.0
2017-Nov-12 23:30N 36°03' W 005°18'0 0.8
2017-Nov-12 23:00N 36°03' W 005°18'1 1.5
2017-Nov-12 22:30N 36°03' W 005°17'713.0
2017-Nov-12 22:00N 36°04' W 005°09'20315.4
2017-Nov-12 08:47N 37°09' W 001°09'616.6
2017-Nov-12 08:26N 37°13' W 001°04'1016.4
2017-Nov-12 07:49N 37°20' W 000°55'616.7
2017-Nov-12 07:27N 37°24' W 000°49'816.6
2017-Nov-12 06:59N 37°29' W 000°42'816.4
2017-Nov-12 06:30N 37°34' W 000°34'816.3
2017-Nov-12 06:00N 37°41' W 000°28'816.4
2017-Nov-12 05:30N 37°48' W 000°23'816.2
2017-Nov-12 05:00N 37°55' W 000°17'816.4
2017-Nov-12 04:30N 38°01' W 000°11'2216.1
2017-Nov-12 03:09N 38°20' E 000°04'216.0
2017-Nov-12 03:00N 38°22' E 000°06'1016.0
2017-Nov-12 02:23N 38°30' E 000°12'170 4.4
2017-Nov-10 12:05N 40°60' E 001°57'415.1
2017-Nov-10 11:51N 41°03' E 001°59'515.4
2017-Nov-10 11:30N 41°07' E 002°03'1215.6
2017-Nov-10 10:45N 41°18' E 002°10'1 2.7
2017-Nov-10 10:16N 41°18' E 002°09'1 0.1
2017-Nov-09 23:01N 41°18' E 002°11'0 6.7
2017-Nov-09 23:00N 41°18' E 002°11'24116.3
2017-Nov-09 08:14N 42°60' E 007°05'417.3
2017-Nov-09 07:59N 43°02' E 007°11'917.4
2017-Nov-09 07:26N 43°06' E 007°22'6017.3
2017-Nov-09 03:57N 43°33' E 008°36'817.2
2017-Nov-09 03:30N 43°36' E 008°46'917.3
2017-Nov-09 03:00N 43°40' E 008°56'917.3
2017-Nov-09 02:31N 43°44' E 009°07'917.5
2017-Nov-09 02:00N 43°48' E 009°18'917.1
2017-Nov-09 01:31N 43°52' E 009°28'816.9
2017-Nov-09 01:00N 43°56' E 009°39'917.2
2017-Nov-09 00:31N 43°60' E 009°50'612.5
2017-Nov-09 00:00N 44°06' E 009°51'1 1.2
2017-Nov-08 23:29N 44°06' E 009°51'0 0.0
2017-Nov-08 22:59N 44°06' E 009°51'0 0.0
2017-Nov-08 22:29N 44°06' E 009°51'0 0.0
2017-Nov-08 21:56N 44°06' E 009°51'0 0.0
2017-Nov-08 21:29N 44°06' E 009°51'0 0.0
2017-Nov-08 20:59N 44°06' E 009°51'0 0.0
2017-Nov-08 20:29N 44°06' E 009°51'0 0.0
2017-Nov-08 19:59N 44°06' E 009°51'0 0.0
2017-Nov-08 19:29N 44°06' E 009°51'0 0.0
2017-Nov-08 18:59N 44°06' E 009°51'0 0.0
2017-Nov-08 18:29N 44°06' E 009°51'0 0.0
2017-Nov-08 17:59N 44°06' E 009°51'0 0.0
2017-Nov-08 17:29N 44°06' E 009°51'0 0.0
2017-Nov-08 16:59N 44°06' E 009°51'0 0.0
2017-Nov-08 16:20N 44°06' E 009°51'0 0.1
2017-Nov-08 15:59N 44°06' E 009°51'0 0.0
2017-Nov-08 15:29N 44°06' E 009°51'0 0.0
2017-Nov-08 14:58N 44°06' E 009°51'0 0.0
2017-Nov-08 14:28N 44°06' E 009°51'0 0.0
2017-Nov-08 13:52N 44°06' E 009°51'0 0.0
2017-Nov-08 13:28N 44°06' E 009°51'0 0.0
2017-Nov-08 12:58N 44°06' E 009°51'0 0.0
2017-Nov-08 12:28N 44°06' E 009°51'0 0.0
2017-Nov-08 11:58N 44°06' E 009°51'0 0.0
2017-Nov-08 11:28N 44°06' E 009°51'0 0.0
2017-Nov-08 10:55N 44°06' E 009°51'0 0.0
2017-Nov-08 10:25N 44°06' E 009°51'0 0.0
2017-Nov-08 09:58N 44°06' E 009°51'0 0.0
2017-Nov-08 09:25N 44°06' E 009°51'0 0.0
2017-Nov-08 08:55N 44°06' E 009°51'0 0.0
2017-Nov-08 08:28N 44°06' E 009°51'0 0.0
2017-Nov-08 07:58N 44°06' E 009°51'0 0.0
2017-Nov-08 07:28N 44°06' E 009°51'0 0.0
2017-Nov-08 06:58N 44°06' E 009°51'0 0.0
2017-Nov-08 06:28N 44°06' E 009°51'0 0.0
2017-Nov-08 05:58N 44°06' E 009°51'0 0.0
2017-Nov-08 05:28N 44°06' E 009°51'0 0.0
2017-Nov-08 04:58N 44°06' E 009°51'0 0.0
2017-Nov-08 04:28N 44°06' E 009°51'0 0.0
2017-Nov-08 03:58N 44°06' E 009°51'0 0.0
2017-Nov-08 03:28N 44°06' E 009°51'0 0.0
2017-Nov-08 02:58N 44°06' E 009°51'0 0.0
2017-Nov-08 02:28N 44°06' E 009°51'0 0.0
2017-Nov-08 01:58N 44°06' E 009°51'0 0.0
2017-Nov-08 01:28N 44°06' E 009°51'0 0.0
2017-Nov-08 00:58N 44°06' E 009°51'0 0.0
2017-Nov-08 00:28N 44°06' E 009°51'0 0.0
2017-Nov-07 23:58N 44°06' E 009°51'0 0.0
2017-Nov-07 23:28N 44°06' E 009°51'0 0.0
2017-Nov-07 22:58N 44°06' E 009°51'0 0.0
2017-Nov-07 22:28N 44°06' E 009°51'0 0.0
2017-Nov-07 21:58N 44°06' E 009°51'0 0.0
2017-Nov-07 21:28N 44°06' E 009°51'0 0.0
2017-Nov-07 21:00N 44°06' E 009°51'0 0.1
2017-Nov-07 20:30N 44°06' E 009°51'2 4.9
2017-Nov-07 20:00N 44°04' E 009°51'4 8.6
2017-Nov-07 19:30N 44°01' E 009°56'3 5.5
2017-Nov-07 19:00N 43°59' E 009°57'916.4
2017-Nov-07 18:29N 43°50' E 010°02'919.9
2017-Nov-07 18:00N 43°42' E 010°06'1020.2
2017-Nov-07 17:30N 43°32' E 010°05'1020.2
2017-Nov-07 17:00N 43°21' E 010°05'1019.8
2017-Nov-07 16:30N 43°11' E 010°04'1019.7
2017-Nov-07 16:00N 43°02' E 010°03'2517.2
2017-Nov-07 14:33N 42°38' E 010°14'119.9
2017-Nov-07 14:30N 42°37' E 010°15'1120.2
2017-Nov-07 13:58N 42°30' E 010°26'  
Track history (hours):
 
Tides and Currents Weather Stations Pressure Air Temp Water Temp Dewpoint Dewpoint Depression Visibility Wind Speed Wind Dir Waves Ship Positions

MSC Kalamata

Last reported at 2017-Nov-17 13:55 UTC. Time now 2017-Nov-23 07:50 UTC.
Position N 37°53' W 030°06'.

Length 304 m; draft 13.6 m.

Type: Ship (hazmat cat D). MMSI: 477510600.

Date/timePositionNaut miles runAvg speedWind from/ knotsBaromVisibWave heightAir tempDewpointWater temp
2017-Nov-17 13:55N 37°53' W 030°06'818.8
2017-Nov-17 13:28N 37°54' W 029°56'918.6
2017-Nov-17 13:00N 37°54' W 029°45'919.0
2017-Nov-17 12:30N 37°55' W 029°33'1019.0
2017-Nov-17 12:00N 37°55' W 029°21'919.0
2017-Nov-17 11:31N 37°56' W 029°09'1019.2
2017-Nov-17 11:00N 37°56' W 028°57'1019.3
2017-Nov-17 10:30N 37°57' W 028°44'1019.1
2017-Nov-17 10:00N 37°58' W 028°32'1019.3
2017-Nov-17 09:30N 37°58' W 028°20'1019.1
2017-Nov-17 09:00N 37°59' W 028°08'1019.3
2017-Nov-17 08:30N 37°60' W 027°56'1019.5
2017-Nov-17 08:00N 38°00' W 027°43'1019.3
2017-Nov-17 07:30N 38°01' W 027°31'1019.5
2017-Nov-17 07:00N 38°01' W 027°19'1019.6
2017-Nov-17 06:30N 38°02' W 027°06'1019.1
2017-Nov-17 06:00N 38°03' W 026°54'1019.3
2017-Nov-17 05:30N 38°03' W 026°42'1019.2
2017-Nov-17 05:00N 38°04' W 026°30'1019.3
2017-Nov-17 04:30N 38°05' W 026°18'1019.2
2017-Nov-17 04:00N 38°06' W 026°05'919.0
2017-Nov-17 03:30N 38°06' W 025°53'1019.1
2017-Nov-17 03:00N 38°07' W 025°41'1019.3
2017-Nov-17 02:31N 38°08' W 025°29'1019.0
2017-Nov-17 02:00N 38°08' W 025°17'1019.1
2017-Nov-17 01:30N 38°09' W 025°05'1019.2
2017-Nov-17 01:00N 38°09' W 024°53'1019.4
2017-Nov-17 00:31N 38°10' W 024°40'1019.5
2017-Nov-17 00:00N 38°11' W 024°28'1019.5
2017-Nov-16 23:31N 38°11' W 024°16'66819.0
2017-Nov-15 12:21N 37°57' W 010°08'1419.4
2017-Nov-15 11:36N 37°56' W 009°50'218.8
2017-Nov-15 11:30N 37°56' W 009°47'918.9
2017-Nov-15 11:01N 37°55' W 009°35'1019.2
2017-Nov-15 10:30N 37°54' W 009°23'1019.3
2017-Nov-15 10:00N 37°53' W 009°11'918.9
2017-Nov-15 09:31N 37°53' W 008°59'714.2
2017-Nov-15 09:00N 37°55' W 008°51'1 1.7
2017-Nov-15 08:28N 37°56' W 008°51'0 0.0
2017-Nov-15 07:58N 37°56' W 008°51'0 0.0
2017-Nov-15 07:28N 37°56' W 008°51'0 0.0
2017-Nov-15 06:58N 37°56' W 008°51'0 0.0
2017-Nov-15 06:28N 37°56' W 008°51'0 0.0
2017-Nov-15 05:58N 37°56' W 008°51'0 0.0
2017-Nov-15 05:28N 37°56' W 008°51'0 0.0
2017-Nov-15 04:58N 37°56' W 008°51'0 0.0
2017-Nov-15 04:28N 37°56' W 008°51'0 0.0
2017-Nov-15 03:58N 37°56' W 008°51'0 0.0
2017-Nov-15 03:28N 37°56' W 008°51'0 0.0
2017-Nov-15 02:58N 37°56' W 008°51'0 0.0
2017-Nov-15 02:28N 37°56' W 008°51'0 0.1
2017-Nov-15 01:58N 37°56' W 008°51'0 0.0
2017-Nov-15 01:28N 37°56' W 008°51'0 0.0
2017-Nov-15 00:58N 37°56' W 008°51'0 0.0
2017-Nov-15 00:28N 37°56' W 008°51'0 0.0
2017-Nov-14 23:58N 37°56' W 008°51'0 0.0
2017-Nov-14 23:28N 37°56' W 008°51'0 0.0
2017-Nov-14 22:58N 37°56' W 008°51'0 0.0
2017-Nov-14 22:28N 37°56' W 008°51'0 0.0
2017-Nov-14 21:58N 37°56' W 008°51'0 0.0
2017-Nov-14 21:28N 37°56' W 008°51'0 0.0
2017-Nov-14 20:58N 37°56' W 008°51'0 0.0
2017-Nov-14 20:28N 37°56' W 008°51'0 0.0
2017-Nov-14 19:58N 37°56' W 008°51'0 0.0
2017-Nov-14 19:28N 37°56' W 008°51'0 0.0
2017-Nov-14 18:58N 37°56' W 008°51'0 0.0
2017-Nov-14 18:30N 37°56' W 008°51'0 0.8
2017-Nov-14 18:00N 37°55' W 008°50'3 5.5
2017-Nov-14 17:31N 37°53' W 008°51'3 6.2
2017-Nov-14 17:00N 37°50' W 008°53'0 0.8
2017-Nov-14 16:31N 37°50' W 008°54'3 6.0
2017-Nov-14 16:00N 37°47' W 008°56'612.9
2017-Nov-14 15:30N 37°41' W 008°57'712.9
2017-Nov-14 15:00N 37°35' W 009°01'713.0
2017-Nov-14 14:28N 37°29' W 009°04'612.8
2017-Nov-14 13:59N 37°23' W 009°08'613.2
2017-Nov-14 13:30N 37°17' W 009°11'1412.9
2017-Nov-14 12:28N 37°05' W 009°18'196 5.7
2017-Nov-13 02:00N 36°09' W 005°25'4 8.4
2017-Nov-13 01:30N 36°05' W 005°23'5 9.5
2017-Nov-13 01:00N 36°03' W 005°17'1 1.3
2017-Nov-13 00:30N 36°03' W 005°17'1 1.1
2017-Nov-13 00:00N 36°03' W 005°17'0 1.0
2017-Nov-12 23:30N 36°03' W 005°18'0 0.8
2017-Nov-12 23:00N 36°03' W 005°18'1 1.5
2017-Nov-12 22:30N 36°03' W 005°17'713.0
2017-Nov-12 22:00N 36°04' W 005°09'20315.4
2017-Nov-12 08:47N 37°09' W 001°09'616.6
2017-Nov-12 08:26N 37°13' W 001°04'1016.4
2017-Nov-12 07:49N 37°20' W 000°55'616.7
2017-Nov-12 07:27N 37°24' W 000°49'816.6
2017-Nov-12 06:59N 37°29' W 000°42'816.4
2017-Nov-12 06:30N 37°34' W 000°34'816.3
2017-Nov-12 06:00N 37°41' W 000°28'816.4
2017-Nov-12 05:30N 37°48' W 000°23'816.2
2017-Nov-12 05:00N 37°55' W 000°17'816.4
2017-Nov-12 04:30N 38°01' W 000°11'2216.1
2017-Nov-12 03:09N 38°20' E 000°04'216.0
2017-Nov-12 03:00N 38°22' E 000°06'1016.0
2017-Nov-12 02:23N 38°30' E 000°12'170 4.4
2017-Nov-10 12:05N 40°60' E 001°57'415.1
2017-Nov-10 11:51N 41°03' E 001°59'515.4
2017-Nov-10 11:30N 41°07' E 002°03'1215.6
2017-Nov-10 10:45N 41°18' E 002°10'1 2.7
2017-Nov-10 10:16N 41°18' E 002°09'1 0.1
2017-Nov-09 23:01N 41°18' E 002°11'0 6.7
2017-Nov-09 23:00N 41°18' E 002°11'24116.3
2017-Nov-09 08:14N 42°60' E 007°05'417.3
2017-Nov-09 07:59N 43°02' E 007°11'917.4
2017-Nov-09 07:26N 43°06' E 007°22'6017.3
2017-Nov-09 03:57N 43°33' E 008°36'817.2
2017-Nov-09 03:30N 43°36' E 008°46'917.3
2017-Nov-09 03:00N 43°40' E 008°56'917.3
2017-Nov-09 02:31N 43°44' E 009°07'917.5
2017-Nov-09 02:00N 43°48' E 009°18'917.1
2017-Nov-09 01:31N 43°52' E 009°28'816.9
2017-Nov-09 01:00N 43°56' E 009°39'917.2
2017-Nov-09 00:31N 43°60' E 009°50'612.5
2017-Nov-09 00:00N 44°06' E 009°51'1 1.2
2017-Nov-08 23:29N 44°06' E 009°51'0 0.0
2017-Nov-08 22:59N 44°06' E 009°51'0 0.0
2017-Nov-08 22:29N 44°06' E 009°51'0 0.0
2017-Nov-08 21:56N 44°06' E 009°51'0 0.0
2017-Nov-08 21:29N 44°06' E 009°51'0 0.0
2017-Nov-08 20:59N 44°06' E 009°51'0 0.0
2017-Nov-08 20:29N 44°06' E 009°51'0 0.0
2017-Nov-08 19:59N 44°06' E 009°51'0 0.0
2017-Nov-08 19:29N 44°06' E 009°51'0 0.0
2017-Nov-08 18:59N 44°06' E 009°51'0 0.0
2017-Nov-08 18:29N 44°06' E 009°51'0 0.0
2017-Nov-08 17:59N 44°06' E 009°51'0 0.0
2017-Nov-08 17:29N 44°06' E 009°51'0 0.0
2017-Nov-08 16:59N 44°06' E 009°51'0 0.0
2017-Nov-08 16:20N 44°06' E 009°51'0 0.1
2017-Nov-08 15:59N 44°06' E 009°51'0 0.0
2017-Nov-08 15:29N 44°06' E 009°51'0 0.0
2017-Nov-08 14:58N 44°06' E 009°51'0 0.0
2017-Nov-08 14:28N 44°06' E 009°51'0 0.0
2017-Nov-08 13:52N 44°06' E 009°51'0 0.0
2017-Nov-08 13:28N 44°06' E 009°51'0 0.0
2017-Nov-08 12:58N 44°06' E 009°51'0 0.0
2017-Nov-08 12:28N 44°06' E 009°51'0 0.0
2017-Nov-08 11:58N 44°06' E 009°51'0 0.0
2017-Nov-08 11:28N 44°06' E 009°51'0 0.0
2017-Nov-08 10:55N 44°06' E 009°51'0 0.0
2017-Nov-08 10:25N 44°06' E 009°51'0 0.0
2017-Nov-08 09:58N 44°06' E 009°51'0 0.0
2017-Nov-08 09:25N 44°06' E 009°51'0 0.0
2017-Nov-08 08:55N 44°06' E 009°51'0 0.0
2017-Nov-08 08:28N 44°06' E 009°51'0 0.0
2017-Nov-08 07:58N 44°06' E 009°51'0 0.0
2017-Nov-08 07:28N 44°06' E 009°51'0 0.0
2017-Nov-08 06:58N 44°06' E 009°51'0 0.0
2017-Nov-08 06:28N 44°06' E 009°51'0 0.0
2017-Nov-08 05:58N 44°06' E 009°51'0 0.0
2017-Nov-08 05:28N 44°06' E 009°51'0 0.0
2017-Nov-08 04:58N 44°06' E 009°51'0 0.0
2017-Nov-08 04:28N 44°06' E 009°51'0 0.0
2017-Nov-08 03:58N 44°06' E 009°51'0 0.0
2017-Nov-08 03:28N 44°06' E 009°51'0 0.0
2017-Nov-08 02:58N 44°06' E 009°51'0 0.0
2017-Nov-08 02:28N 44°06' E 009°51'0 0.0
2017-Nov-08 01:58N 44°06' E 009°51'0 0.0
2017-Nov-08 01:28N 44°06' E 009°51'0 0.0
2017-Nov-08 00:58N 44°06' E 009°51'0 0.0
2017-Nov-08 00:28N 44°06' E 009°51'0 0.0
2017-Nov-07 23:58N 44°06' E 009°51'0 0.0
2017-Nov-07 23:28N 44°06' E 009°51'0 0.0
2017-Nov-07 22:58N 44°06' E 009°51'0 0.0
2017-Nov-07 22:28N 44°06' E 009°51'0 0.0
2017-Nov-07 21:58N 44°06' E 009°51'0 0.0
2017-Nov-07 21:28N 44°06' E 009°51'0 0.0
2017-Nov-07 21:00N 44°06' E 009°51'0 0.1
2017-Nov-07 20:30N 44°06' E 009°51'2 4.9
2017-Nov-07 20:00N 44°04' E 009°51'4 8.6
2017-Nov-07 19:30N 44°01' E 009°56'3 5.5
2017-Nov-07 19:00N 43°59' E 009°57'916.4
2017-Nov-07 18:29N 43°50' E 010°02'919.9
2017-Nov-07 18:00N 43°42' E 010°06'1020.2
2017-Nov-07 17:30N 43°32' E 010°05'1020.2
2017-Nov-07 17:00N 43°21' E 010°05'1019.8
2017-Nov-07 16:30N 43°11' E 010°04'1019.7
2017-Nov-07 16:00N 43°02' E 010°03'2517.2
2017-Nov-07 14:33N 42°38' E 010°14'119.9
2017-Nov-07 14:30N 42°37' E 010°15'1120.2
2017-Nov-07 13:58N 42°30' E 010°26'  

Dump ship's entire track history